createdAt,value
2018-06-18T00:00:36.638Z,16.40
2018-06-18T00:03:04.777Z,16.40
2018-06-18T00:05:32.684Z,16.40
2018-06-18T00:08:00.570Z,16.40
2018-06-18T00:10:28.647Z,16.40
2018-06-18T00:12:56.709Z,16.40
2018-06-18T00:15:24.703Z,16.40
2018-06-18T00:17:52.622Z,16.40
2018-06-18T00:20:20.544Z,16.40
2018-06-18T00:22:48.417Z,16.40
2018-06-18T00:25:16.275Z,16.40
2018-06-18T00:27:44.115Z,16.40
2018-06-18T00:30:12.107Z,16.50
2018-06-18T00:32:40.022Z,16.50
2018-06-18T00:35:07.945Z,16.50
2018-06-18T00:37:35.850Z,16.50
2018-06-18T00:40:03.720Z,16.50
2018-06-18T00:42:31.621Z,16.50
2018-06-18T00:44:59.530Z,16.50
2018-06-18T00:47:27.544Z,16.50
2018-06-18T00:49:55.362Z,16.50
2018-06-18T00:52:23.247Z,16.50
2018-06-18T00:54:51.211Z,16.50
2018-06-18T00:57:19.194Z,16.50
2018-06-18T00:59:47.123Z,16.60
2018-06-18T01:02:15.094Z,16.60
2018-06-18T01:04:42.998Z,16.50
2018-06-18T01:07:10.916Z,16.50
2018-06-18T01:09:38.808Z,16.50
2018-06-18T01:12:06.785Z,16.50
2018-06-18T01:14:34.734Z,16.50
2018-06-18T01:17:02.603Z,16.50
2018-06-18T01:19:30.559Z,16.50
2018-06-18T01:21:58.525Z,16.60
2018-06-18T01:25:10.394Z,16.60
2018-06-18T01:27:38.255Z,16.60
2018-06-18T01:30:06.083Z,16.60
2018-06-18T01:32:34.082Z,16.60
2018-06-18T01:35:02.002Z,16.50
2018-06-18T01:37:30.166Z,16.50
2018-06-18T01:39:58.072Z,16.50
2018-06-18T01:42:26.139Z,16.50
2018-06-18T01:44:53.926Z,16.50
2018-06-18T01:47:21.898Z,16.50
2018-06-18T01:49:49.742Z,16.50
2018-06-18T01:52:17.651Z,16.50
2018-06-18T01:54:45.571Z,16.50
2018-06-18T01:57:13.433Z,16.50
2018-06-18T01:59:41.401Z,16.50
2018-06-18T02:02:09.253Z,16.50
2018-06-18T02:04:37.097Z,16.50
2018-06-18T02:07:04.920Z,16.50
2018-06-18T02:09:32.958Z,16.50
2018-06-18T02:12:00.907Z,16.50
2018-06-18T02:14:28.803Z,16.50
2018-06-18T02:16:56.703Z,16.50
2018-06-18T02:19:24.558Z,16.50
2018-06-18T02:21:52.515Z,16.50
2018-06-18T02:24:20.354Z,16.50
2018-06-18T02:26:52.798Z,16.50
2018-06-18T02:29:26.343Z,16.50
2018-06-18T02:31:59.832Z,16.50
2018-06-18T02:34:33.267Z,16.50
2018-06-18T02:37:06.764Z,16.50
2018-06-18T02:39:39.285Z,16.50
2018-06-18T02:42:07.222Z,16.50
2018-06-18T02:44:35.083Z,16.50
2018-06-18T02:47:03.015Z,16.40
2018-06-18T02:49:31.034Z,16.40
2018-06-18T02:51:58.847Z,16.40
2018-06-18T02:59:32.558Z,16.30
2018-06-18T03:02:00.838Z,16.30
2018-06-18T03:04:28.829Z,16.30
2018-06-18T03:06:56.690Z,16.30
2018-06-18T03:09:24.489Z,16.20
2018-06-18T03:11:52.349Z,16.20
2018-06-18T03:14:20.279Z,16.20
2018-06-18T03:16:48.087Z,16.20
2018-06-18T03:19:21.421Z,16.20
2018-06-18T03:21:54.818Z,16.20
2018-06-18T03:24:28.150Z,16.20
2018-06-18T03:27:01.589Z,16.20
2018-06-18T03:29:31.456Z,16.20
2018-06-18T03:32:01.125Z,16.20
2018-06-18T03:34:29.011Z,16.20
2018-06-18T03:37:00.060Z,16.20
2018-06-18T03:41:55.695Z,16.20
2018-06-18T03:45:32.322Z,16.30
2018-06-18T03:48:06.466Z,16.30
2018-06-18T03:50:34.636Z,16.30
2018-06-18T03:53:02.582Z,16.30
2018-06-18T03:55:38.394Z,16.30
2018-06-18T03:58:07.197Z,16.30
2018-06-18T04:02:51.379Z,16.30
2018-06-18T04:05:25.188Z,16.30
2018-06-18T04:07:57.231Z,16.40
2018-06-18T04:10:31.981Z,16.40
2018-06-18T04:12:59.979Z,16.40
2018-06-18T04:15:27.878Z,16.40
2018-06-18T04:17:55.766Z,16.40
2018-06-18T04:20:24.699Z,16.40
2018-06-18T04:22:52.745Z,16.40
2018-06-18T04:25:20.668Z,16.40
2018-06-18T04:27:48.676Z,16.40
2018-06-18T04:30:16.605Z,16.40
2018-06-18T04:32:44.518Z,16.40
2018-06-18T04:35:12.423Z,16.50
2018-06-18T04:37:40.385Z,16.50
2018-06-18T04:40:08.566Z,16.50
2018-06-18T04:42:42.010Z,16.50
2018-06-18T04:45:15.563Z,16.50
2018-06-18T04:47:49.200Z,16.60
2018-06-18T04:50:22.774Z,16.60
2018-06-18T04:52:50.686Z,16.70
2018-06-18T04:55:18.685Z,16.70
2018-06-18T04:57:46.700Z,16.70
2018-06-18T05:00:26.516Z,16.80
2018-06-18T05:02:54.462Z,16.90
2018-06-18T05:05:22.294Z,17.00
2018-06-18T05:07:54.426Z,17.10
2018-06-18T05:10:26.421Z,17.10
2018-06-18T05:12:54.595Z,17.20
2018-06-18T05:15:30.737Z,17.30
2018-06-18T05:17:58.714Z,17.20
2018-06-18T05:20:26.636Z,17.30
2018-06-18T05:22:54.613Z,17.20
2018-06-18T05:25:22.619Z,17.20
2018-06-18T05:27:50.587Z,17.20
2018-06-18T05:30:21.540Z,17.30
2018-06-18T05:32:49.439Z,17.30
2018-06-18T05:35:17.403Z,17.30
2018-06-18T05:37:48.299Z,17.40
2018-06-18T05:40:16.577Z,17.40
2018-06-18T05:42:44.541Z,17.50
2018-06-18T05:45:12.654Z,17.50
2018-06-18T05:47:40.883Z,17.60
2018-06-18T05:50:08.899Z,17.70
2018-06-18T05:52:36.763Z,17.80
2018-06-18T05:55:04.635Z,17.90
2018-06-18T05:57:32.983Z,17.90
2018-06-18T06:00:00.945Z,17.90
2018-06-18T06:02:28.812Z,18.10
2018-06-18T06:04:56.785Z,18.40
2018-06-18T06:07:24.647Z,18.60
2018-06-18T06:09:52.517Z,18.60
2018-06-18T06:12:20.615Z,18.70
2018-06-18T06:14:48.517Z,18.80
2018-06-18T06:19:44.123Z,19.40
2018-06-18T06:22:12.021Z,19.60
2018-06-18T06:27:07.744Z,19.60
2018-06-18T06:29:35.666Z,19.50
2018-06-18T06:32:03.558Z,19.40
2018-06-18T06:34:31.758Z,19.40
2018-06-18T06:39:27.422Z,19.30
2018-06-18T06:42:00.175Z,19.20
2018-06-18T06:44:28.137Z,19.30
2018-06-18T06:46:56.248Z,19.30
2018-06-18T06:49:24.205Z,19.50
2018-06-18T06:51:52.071Z,19.60
2018-06-18T06:54:20.001Z,19.70
2018-06-18T06:56:48.102Z,19.70
2018-06-18T06:59:16.042Z,19.70
2018-06-18T07:01:44.026Z,19.70
2018-06-18T07:04:11.887Z,19.80
2018-06-18T07:09:09.806Z,20.00
2018-06-18T07:11:38.322Z,20.10
2018-06-18T07:14:06.279Z,20.30
2018-06-18T07:16:34.271Z,20.40
2018-06-18T07:19:02.398Z,20.30
2018-06-18T07:21:30.372Z,20.30
2018-06-18T07:23:58.402Z,20.10
2018-06-18T07:26:26.481Z,20.10
2018-06-18T07:28:54.414Z,20.10
2018-06-18T07:31:22.349Z,20.10
2018-06-18T07:33:50.185Z,20.20
2018-06-18T07:36:18.115Z,20.40
2018-06-18T07:38:46.039Z,20.30
2018-06-18T07:41:14.054Z,20.40
2018-06-18T07:43:41.886Z,20.50
2018-06-18T07:46:09.824Z,20.70
2018-06-18T07:48:37.758Z,20.90
2018-06-18T07:51:05.683Z,20.90
2018-06-18T07:53:33.550Z,20.80
2018-06-18T07:56:01.423Z,21.00
2018-06-18T07:58:29.298Z,22.00
2018-06-18T08:00:57.212Z,23.20
2018-06-18T08:03:25.072Z,23.70
2018-06-18T08:05:53.425Z,23.70
2018-06-18T08:08:21.317Z,23.60
2018-06-18T08:10:49.183Z,23.30
2018-06-18T08:13:17.150Z,23.00
2018-06-18T08:18:12.863Z,22.90
2018-06-18T08:20:40.904Z,22.90
2018-06-18T08:23:08.986Z,23.00
2018-06-18T08:25:36.950Z,22.70
2018-06-18T08:28:04.953Z,22.30
2018-06-18T08:30:32.973Z,22.00
2018-06-18T08:35:35.718Z,21.50
2018-06-18T08:38:04.106Z,21.50
2018-06-18T08:40:32.056Z,21.60
2018-06-18T08:43:00.015Z,21.60
2018-06-18T08:45:27.983Z,21.50
2018-06-18T08:47:55.868Z,21.40
2018-06-18T08:53:02.661Z,21.60
2018-06-18T08:55:36.370Z,21.70
2018-06-18T08:58:10.134Z,21.70
2018-06-18T09:00:43.599Z,21.60
2018-06-18T09:03:17.501Z,21.50
2018-06-18T09:05:51.152Z,21.20
2018-06-18T09:08:23.161Z,21.10
2018-06-18T09:10:51.644Z,21.00
2018-06-18T09:13:19.459Z,20.90
2018-06-18T09:15:47.396Z,20.80
2018-06-18T09:18:15.321Z,21.00
2018-06-18T09:20:43.289Z,21.20
2018-06-18T09:23:11.298Z,21.60
2018-06-18T09:26:11.246Z,21.90
2018-06-18T09:28:39.213Z,22.10
2018-06-18T09:31:07.237Z,22.30
2018-06-18T09:33:35.247Z,22.50
2018-06-18T09:36:03.209Z,22.80
2018-06-18T09:38:31.180Z,22.90
2018-06-18T09:40:59.066Z,23.10
2018-06-18T09:43:27.018Z,23.00
2018-06-18T09:45:54.876Z,22.90
2018-06-18T09:48:27.275Z,23.00
2018-06-18T09:51:00.482Z,23.10
2018-06-18T09:56:07.164Z,23.60
2018-06-18T09:58:40.719Z,23.60
2018-06-18T10:01:21.730Z,23.30
2018-06-18T10:03:50.300Z,22.90
2018-06-18T10:06:18.823Z,22.70
2018-06-18T10:08:46.885Z,22.70
2018-06-18T10:11:14.833Z,22.60
2018-06-18T10:13:42.807Z,22.50
2018-06-18T10:18:38.549Z,22.10
2018-06-18T10:21:06.570Z,21.90
2018-06-18T10:23:34.499Z,21.80
2018-06-18T10:26:02.475Z,21.70
2018-06-18T10:28:30.458Z,21.80
2018-06-18T10:30:58.384Z,21.90
2018-06-18T10:33:31.949Z,22.00
2018-06-18T10:36:05.512Z,22.20
2018-06-18T10:38:39.018Z,22.50
2018-06-18T10:41:12.570Z,22.90
2018-06-18T10:43:40.496Z,23.20
2018-06-18T10:46:08.437Z,23.90
2018-06-18T10:48:36.292Z,24.50
2018-06-18T10:51:04.692Z,24.60
2018-06-18T10:53:32.668Z,24.40
2018-06-18T10:56:00.630Z,24.10
2018-06-18T10:58:28.523Z,23.70
2018-06-18T11:00:59.013Z,23.40
2018-06-18T11:03:27.103Z,23.10
2018-06-18T11:06:58.351Z,22.80
2018-06-18T11:09:26.275Z,22.80
2018-06-18T11:11:54.354Z,22.70
2018-06-18T11:14:22.235Z,22.70
2018-06-18T11:16:55.864Z,22.80
2018-06-18T11:19:29.261Z,23.00
2018-06-18T11:22:04.008Z,23.20
2018-06-18T11:24:37.478Z,23.40
2018-06-18T11:27:05.577Z,23.40
2018-06-18T11:29:33.472Z,23.40
2018-06-18T11:32:01.475Z,23.10
2018-06-18T11:34:29.397Z,22.90
2018-06-18T11:36:57.344Z,22.60
2018-06-18T11:39:25.397Z,22.40
2018-06-18T11:41:53.522Z,22.30
2018-06-18T11:44:21.450Z,22.10
2018-06-18T11:46:49.305Z,22.20
2018-06-18T11:49:17.328Z,22.50
2018-06-18T11:51:45.290Z,22.60
2018-06-18T11:54:13.219Z,22.80
2018-06-18T11:56:41.175Z,23.00
2018-06-18T11:59:14.581Z,23.10
2018-06-18T12:01:48.078Z,23.10
2018-06-18T12:04:21.445Z,23.20
2018-06-18T12:06:54.932Z,23.10
2018-06-18T12:09:28.566Z,22.90
2018-06-18T12:11:56.660Z,22.60
2018-06-18T12:14:24.629Z,22.20
2018-06-18T12:16:52.622Z,22.00
2018-06-18T12:19:20.576Z,21.90
2018-06-18T12:21:48.444Z,22.00
2018-06-18T12:26:44.323Z,22.40
2018-06-18T12:29:12.335Z,22.70
2018-06-18T12:31:40.258Z,23.00
2018-06-18T12:34:08.321Z,23.30
2018-06-18T12:36:36.415Z,23.60
2018-06-18T12:39:07.535Z,23.70
2018-06-18T12:41:35.600Z,23.60
2018-06-18T12:44:03.545Z,23.50
2018-06-18T12:46:37.236Z,23.50
2018-06-18T12:49:10.821Z,23.40
2018-06-18T12:51:44.207Z,23.40
2018-06-18T12:54:17.501Z,23.50
2018-06-18T13:00:44.570Z,23.70
2018-06-18T13:03:17.493Z,23.60
2018-06-18T13:05:45.352Z,23.90
2018-06-18T13:08:13.710Z,24.00
2018-06-18T13:10:44.724Z,24.20
2018-06-18T13:13:12.688Z,24.10
2018-06-18T13:15:40.591Z,23.70
2018-06-18T13:18:08.513Z,23.30
2018-06-18T13:20:36.862Z,23.00
2018-06-18T13:23:05.264Z,22.90
2018-06-18T13:25:33.496Z,22.40
2018-06-18T13:28:07.122Z,21.90
2018-06-18T13:30:35.113Z,21.60
2018-06-18T13:33:03.046Z,21.40
2018-06-18T13:35:31.363Z,21.30
2018-06-18T13:38:04.870Z,21.30
2018-06-18T13:40:38.336Z,21.40
2018-06-18T13:43:11.755Z,21.60
2018-06-18T13:45:42.340Z,22.00
2018-06-18T13:48:16.109Z,22.30
2018-06-18T13:50:44.475Z,22.60
2018-06-18T13:53:12.590Z,22.80
2018-06-18T13:55:40.526Z,23.00
2018-06-18T13:58:08.599Z,23.20
2018-06-18T14:01:07.771Z,23.30
2018-06-18T14:03:36.379Z,23.50
2018-06-18T14:06:04.360Z,23.90
2018-06-18T14:08:33.041Z,24.10
2018-06-18T14:11:01.130Z,24.10
2018-06-18T14:13:29.034Z,24.10
2018-06-18T14:15:57.206Z,24.10
2018-06-18T14:18:25.057Z,23.90
2018-06-18T14:20:53.128Z,23.80
2018-06-18T14:23:21.061Z,23.90
2018-06-18T14:25:48.962Z,23.90
2018-06-18T14:28:16.853Z,24.10
2018-06-18T14:30:50.412Z,24.10
2018-06-18T14:33:23.985Z,24.10
2018-06-18T14:35:57.401Z,24.00
2018-06-18T14:38:30.912Z,23.70
2018-06-18T14:40:58.845Z,23.50
2018-06-18T14:43:27.006Z,23.40
2018-06-18T14:45:55.403Z,23.30
2018-06-18T14:50:51.602Z,23.10
2018-06-18T14:53:20.265Z,23.00
2018-06-18T14:56:02.771Z,22.80
2018-06-18T14:58:30.881Z,22.50
2018-06-18T15:00:58.824Z,22.40
2018-06-18T15:03:26.594Z,22.20
2018-06-18T15:05:54.639Z,22.20
2018-06-18T15:08:22.739Z,22.20
2018-06-18T15:10:53.259Z,22.20
2018-06-18T15:13:21.165Z,22.10
2018-06-18T15:15:54.678Z,22.10
2018-06-18T15:18:24.205Z,22.00
2018-06-18T15:23:21.206Z,22.00
2018-06-18T15:25:50.328Z,22.00
2018-06-18T15:28:18.629Z,22.10
2018-06-18T15:30:46.607Z,22.30
2018-06-18T15:33:14.505Z,22.40
2018-06-18T15:38:10.288Z,22.90
2018-06-18T15:40:38.268Z,23.00
2018-06-18T15:43:13.134Z,23.10
2018-06-18T15:45:41.260Z,23.10
2018-06-18T15:48:09.416Z,23.30
2018-06-18T15:50:37.507Z,23.40
2018-06-18T15:53:05.507Z,23.40
2018-06-18T15:55:33.492Z,23.40
2018-06-18T15:58:01.520Z,23.40
2018-06-18T16:00:29.420Z,23.40
2018-06-18T16:05:25.286Z,22.90
2018-06-18T16:07:53.352Z,22.80
2018-06-18T16:10:21.447Z,22.80
2018-06-18T16:12:49.429Z,22.70
2018-06-18T16:15:17.291Z,22.80
2018-06-18T16:17:45.465Z,22.70
2018-06-18T16:20:14.442Z,22.80
2018-06-18T16:22:42.430Z,22.90
2018-06-18T16:25:10.343Z,23.10
2018-06-18T16:27:38.284Z,23.30
2018-06-18T16:30:06.340Z,23.20
2018-06-18T16:32:34.249Z,23.10
2018-06-18T16:35:02.326Z,23.10
2018-06-18T16:37:30.222Z,23.00
2018-06-18T16:39:58.311Z,23.00
2018-06-18T16:42:26.177Z,23.00
2018-06-18T16:44:54.178Z,23.00
2018-06-18T16:47:22.103Z,23.10
2018-06-18T16:49:50.267Z,23.10
2018-06-18T16:52:18.198Z,23.10
2018-06-18T16:54:46.459Z,23.00
2018-06-18T16:57:14.416Z,23.00
2018-06-18T16:59:42.359Z,23.10
2018-06-18T17:02:10.492Z,23.20
2018-06-18T17:04:39.284Z,23.20
2018-06-18T17:07:07.199Z,23.20
2018-06-18T17:09:35.174Z,23.20
2018-06-18T17:12:03.131Z,23.10
2018-06-18T17:14:31.070Z,22.90
2018-06-18T17:16:59.051Z,22.70
2018-06-18T17:19:27.121Z,22.60
2018-06-18T17:21:55.116Z,22.50
2018-06-18T17:24:23.158Z,22.30
2018-06-18T17:26:51.380Z,22.30
2018-06-18T17:29:19.302Z,22.30
2018-06-18T17:31:47.420Z,22.20
2018-06-18T17:34:15.268Z,22.10
2018-06-18T17:36:43.435Z,22.10
2018-06-18T17:39:12.717Z,22.20
2018-06-18T17:41:40.888Z,22.20
2018-06-18T17:44:08.766Z,22.20
2018-06-18T17:46:36.931Z,22.30
2018-06-18T17:49:05.170Z,22.40
2018-06-18T17:51:33.794Z,22.50
2018-06-18T17:54:01.868Z,22.60
2018-06-18T17:56:30.484Z,22.50
2018-06-18T17:58:58.477Z,22.40
2018-06-18T18:01:26.387Z,22.30
2018-06-18T18:03:54.511Z,22.10
2018-06-18T18:06:22.369Z,22.00
2018-06-18T18:11:18.167Z,21.90
2018-06-18T18:13:46.166Z,21.80
2018-06-18T18:16:14.187Z,21.60
2018-06-18T18:18:42.120Z,21.40
2018-06-18T18:21:10.132Z,21.30
2018-06-18T18:23:38.064Z,21.20
2018-06-18T18:26:06.135Z,21.30
2018-06-18T18:28:34.097Z,21.30
2018-06-18T18:31:02.034Z,21.30
2018-06-18T18:33:30.042Z,21.20
2018-06-18T18:35:58.077Z,21.20
2018-06-18T18:38:26.059Z,21.20
2018-06-18T18:40:54.157Z,21.20
2018-06-18T18:43:22.180Z,21.10
2018-06-18T18:45:50.042Z,21.10
2018-06-18T18:48:17.934Z,21.10
2018-06-18T18:50:45.976Z,21.10
2018-06-18T18:53:13.999Z,21.10
2018-06-18T18:55:57.499Z,21.10
2018-06-18T18:59:37.006Z,21.00
2018-06-18T19:02:05.031Z,20.90
2018-06-18T19:04:38.074Z,20.70
2018-06-18T19:07:08.309Z,20.60
2018-06-18T19:09:49.005Z,20.50
2018-06-18T19:12:17.250Z,20.30
2018-06-18T19:14:45.564Z,20.20
2018-06-18T19:17:13.857Z,20.00
2018-06-18T19:19:51.578Z,19.90
2018-06-18T19:22:20.282Z,19.80
2018-06-18T19:24:48.371Z,19.80
2018-06-18T19:29:47.242Z,19.80
2018-06-18T19:32:15.209Z,19.80
2018-06-18T19:34:43.083Z,19.80
2018-06-18T19:37:11.082Z,19.70
2018-06-18T19:42:08.344Z,19.60
2018-06-18T19:47:44.380Z,19.60
2018-06-18T19:50:12.454Z,19.60
2018-06-18T19:52:40.597Z,19.60
2018-06-18T19:55:39.410Z,19.50
2018-06-18T19:58:07.374Z,19.50
2018-06-18T20:00:41.810Z,19.40
2018-06-18T20:03:09.833Z,19.40
2018-06-18T20:05:37.719Z,19.40
2018-06-18T20:08:10.628Z,19.40
2018-06-18T20:10:38.586Z,19.40
2018-06-18T20:13:06.499Z,19.40
2018-06-18T20:15:35.047Z,19.30
2018-06-18T20:18:03.058Z,19.30
2018-06-18T20:20:31.201Z,19.30
2018-06-18T20:23:09.267Z,19.10
2018-06-18T20:25:48.535Z,19.10
2018-06-18T20:28:16.643Z,19.00
2018-06-18T20:33:28.855Z,19.00
2018-06-18T20:36:14.343Z,19.10
2018-06-18T20:41:27.842Z,19.10
2018-06-18T20:44:56.615Z,19.10
2018-06-18T20:47:24.697Z,19.10
2018-06-18T20:49:52.905Z,19.10
2018-06-18T20:52:20.791Z,19.10
2018-06-18T20:55:38.557Z,19.00
2018-06-18T20:58:54.992Z,19.00
2018-06-18T21:01:23.035Z,19.00
2018-06-18T21:03:54.565Z,19.00
2018-06-18T21:09:08.130Z,18.90
2018-06-18T21:12:20.665Z,18.80
2018-06-18T21:14:49.075Z,18.60
2018-06-18T21:17:17.084Z,18.40
2018-06-18T21:19:45.352Z,18.30
2018-06-18T21:22:13.387Z,18.10
2018-06-18T21:24:41.478Z,18.00
2018-06-18T21:27:10.747Z,18.00
2018-06-18T21:29:38.903Z,18.00
2018-06-18T21:32:06.898Z,17.90
2018-06-18T21:34:34.933Z,17.90
2018-06-18T21:37:03.002Z,17.80
2018-06-18T21:39:30.981Z,17.80
2018-06-18T21:42:01.356Z,17.70
2018-06-18T21:44:45.510Z,17.70
2018-06-18T21:47:13.656Z,17.60
2018-06-18T21:49:41.718Z,17.60
2018-06-18T21:52:09.921Z,17.60
2018-06-18T21:54:37.958Z,17.50
2018-06-18T21:59:33.920Z,17.50
2018-06-18T22:02:03.220Z,17.40
2018-06-18T22:04:32.376Z,17.40
2018-06-18T22:07:00.404Z,17.40
2018-06-18T22:09:28.972Z,17.40
2018-06-18T22:11:57.444Z,17.30
2018-06-18T22:14:25.407Z,17.30
2018-06-18T22:16:54.164Z,17.30
2018-06-18T22:19:22.215Z,17.40
2018-06-18T22:21:51.069Z,17.40
2018-06-18T22:24:19.718Z,17.50
2018-06-18T22:26:49.173Z,17.50
2018-06-18T22:29:18.813Z,17.50
2018-06-18T22:31:46.962Z,17.50
2018-06-18T22:34:14.945Z,17.50
2018-06-18T22:36:44.055Z,17.50
2018-06-18T22:39:12.618Z,17.50
2018-06-18T22:41:40.673Z,17.40
2018-06-18T22:44:10.984Z,17.30
2018-06-18T22:46:41.256Z,17.20
2018-06-18T22:49:10.146Z,17.20
2018-06-18T22:51:39.932Z,17.10
2018-06-18T22:54:07.904Z,17.00
2018-06-18T22:56:35.827Z,16.90
2018-06-18T22:59:04.193Z,16.90
2018-06-18T23:01:33.478Z,16.80
2018-06-18T23:04:02.118Z,16.80
2018-06-18T23:06:30.936Z,16.70
2018-06-18T23:09:00.967Z,16.70
2018-06-18T23:11:29.669Z,16.70
2018-06-18T23:13:57.672Z,16.60
2018-06-18T23:16:32.389Z,16.50
2018-06-18T23:19:00.335Z,16.50
2018-06-18T23:21:36.927Z,16.50
2018-06-18T23:24:05.104Z,16.50
2018-06-18T23:26:34.600Z,16.40
2018-06-18T23:29:06.431Z,16.40
2018-06-18T23:31:34.358Z,16.30
2018-06-18T23:34:02.653Z,16.20
2018-06-18T23:36:31.297Z,16.20
2018-06-18T23:38:59.212Z,16.10
2018-06-18T23:41:34.794Z,16.10
2018-06-18T23:44:02.998Z,16.00
2018-06-18T23:46:30.933Z,15.90
2018-06-18T23:48:59.172Z,15.90
2018-06-18T23:51:28.897Z,15.80
2018-06-18T23:53:56.810Z,15.80
2018-06-18T23:56:24.850Z,15.80
2018-06-18T23:58:52.966Z,15.80
